sensor_id;sensor_type;location;lat;lon;timestamp;P1;durP1;ratioP1;P2;durP2;ratioP2
9974;SDS011;5028;50.974;4.968;2023-05-07T00:01:14;4.10;;;3.70;;
9974;SDS011;5028;50.974;4.968;2023-05-07T00:03:44;4.73;;;4.33;;
9974;SDS011;5028;50.974;4.968;2023-05-07T00:06:13;5.80;;;4.40;;
9974;SDS011;5028;50.974;4.968;2023-05-07T00:08:41;5.20;;;4.70;;
9974;SDS011;5028;50.974;4.968;2023-05-07T00:11:10;5.03;;;4.20;;
9974;SDS011;5028;50.974;4.968;2023-05-07T00:13:38;6.03;;;4.50;;
9974;SDS011;5028;50.974;4.968;2023-05-07T00:16:06;4.83;;;4.43;;
9974;SDS011;5028;50.974;4.968;2023-05-07T00:18:35;4.63;;;4.23;;
9974;SDS011;5028;50.974;4.968;2023-05-07T00:21:04;5.23;;;4.27;;
9974;SDS011;5028;50.974;4.968;2023-05-07T00:23:33;5.40;;;4.47;;
9974;SDS011;5028;50.974;4.968;2023-05-07T00:26:01;5.07;;;4.57;;
9974;SDS011;5028;50.974;4.968;2023-05-07T00:28:29;5.07;;;4.40;;
9974;SDS011;5028;50.974;4.968;2023-05-07T00:30:57;5.10;;;4.60;;
9974;SDS011;5028;50.974;4.968;2023-05-07T00:33:26;4.90;;;4.40;;
9974;SDS011;5028;50.974;4.968;2023-05-07T00:35:54;5.17;;;4.57;;
9974;SDS011;5028;50.974;4.968;2023-05-07T00:38:23;5.10;;;4.60;;
9974;SDS011;5028;50.974;4.968;2023-05-07T00:40:51;4.90;;;4.20;;
9974;SDS011;5028;50.974;4.968;2023-05-07T00:43:23;5.80;;;4.63;;
9974;SDS011;5028;50.974;4.968;2023-05-07T00:46:02;4.63;;;4.30;;
9974;SDS011;5028;50.974;4.968;2023-05-07T00:48:31;5.13;;;4.63;;
9974;SDS011;5028;50.974;4.968;2023-05-07T00:51:00;6.73;;;5.13;;
9974;SDS011;5028;50.974;4.968;2023-05-07T00:53:29;5.37;;;4.87;;
9974;SDS011;5028;50.974;4.968;2023-05-07T00:55:58;5.90;;;5.27;;
9974;SDS011;5028;50.974;4.968;2023-05-07T00:58:27;5.17;;;4.73;;
9974;SDS011;5028;50.974;4.968;2023-05-07T01:00:55;5.73;;;5.13;;
9974;SDS011;5028;50.974;4.968;2023-05-07T01:03:26;6.37;;;5.00;;
9974;SDS011;5028;50.974;4.968;2023-05-07T01:05:54;5.10;;;4.60;;
9974;SDS011;5028;50.974;4.968;2023-05-07T01:08:26;6.73;;;5.33;;
9974;SDS011;5028;50.974;4.968;2023-05-07T01:11:00;7.20;;;5.67;;
9974;SDS011;5028;50.974;4.968;2023-05-07T01:13:30;6.40;;;5.80;;
9974;SDS011;5028;50.974;4.968;2023-05-07T01:16:00;6.90;;;6.20;;
9974;SDS011;5028;50.974;4.968;2023-05-07T01:18:28;7.27;;;6.47;;
9974;SDS011;5028;50.974;4.968;2023-05-07T01:20:58;9.20;;;6.63;;
9974;SDS011;5028;50.974;4.968;2023-05-07T01:23:31;7.23;;;6.27;;
9974;SDS011;5028;50.974;4.968;2023-05-07T01:26:02;8.30;;;6.17;;
9974;SDS011;5028;50.974;4.968;2023-05-07T01:28:30;6.70;;;6.10;;
9974;SDS011;5028;50.974;4.968;2023-05-07T01:31:00;8.57;;;6.20;;
9974;SDS011;5028;50.974;4.968;2023-05-07T01:33:33;7.00;;;6.30;;
9974;SDS011;5028;50.974;4.968;2023-05-07T01:36:04;6.10;;;5.53;;
9974;SDS011;5028;50.974;4.968;2023-05-07T01:38:36;7.37;;;6.67;;
9974;SDS011;5028;50.974;4.968;2023-05-07T01:41:07;6.90;;;6.20;;
9974;SDS011;5028;50.974;4.968;2023-05-07T01:43:36;8.13;;;6.17;;
9974;SDS011;5028;50.974;4.968;2023-05-07T01:46:05;8.20;;;6.03;;
9974;SDS011;5028;50.974;4.968;2023-05-07T01:48:36;8.53;;;6.17;;
9974;SDS011;5028;50.974;4.968;2023-05-07T01:51:06;6.80;;;5.60;;
9974;SDS011;5028;50.974;4.968;2023-05-07T01:53:37;6.67;;;5.83;;
9974;SDS011;5028;50.974;4.968;2023-05-07T01:56:07;6.67;;;5.70;;
9974;SDS011;5028;50.974;4.968;2023-05-07T01:58:36;5.97;;;5.43;;
9974;SDS011;5028;50.974;4.968;2023-05-07T02:01:04;6.77;;;5.57;;
9974;SDS011;5028;50.974;4.968;2023-05-07T02:03:33;5.43;;;4.93;;
9974;SDS011;5028;50.974;4.968;2023-05-07T02:06:02;5.53;;;5.03;;
9974;SDS011;5028;50.974;4.968;2023-05-07T02:08:31;6.13;;;5.20;;
9974;SDS011;5028;50.974;4.968;2023-05-07T02:11:02;5.77;;;5.27;;
9974;SDS011;5028;50.974;4.968;2023-05-07T02:13:31;5.77;;;5.10;;
9974;SDS011;5028;50.974;4.968;2023-05-07T02:16:01;5.97;;;5.47;;
9974;SDS011;5028;50.974;4.968;2023-05-07T02:18:30;5.90;;;5.30;;
9974;SDS011;5028;50.974;4.968;2023-05-07T02:20:59;5.80;;;5.30;;
9974;SDS011;5028;50.974;4.968;2023-05-07T02:23:28;9.07;;;5.43;;
9974;SDS011;5028;50.974;4.968;2023-05-07T02:25:57;6.27;;;5.67;;
9974;SDS011;5028;50.974;4.968;2023-05-07T02:28:28;8.40;;;5.80;;
9974;SDS011;5028;50.974;4.968;2023-05-07T02:30:56;6.83;;;5.77;;
9974;SDS011;5028;50.974;4.968;2023-05-07T02:33:27;5.77;;;5.10;;
9974;SDS011;5028;50.974;4.968;2023-05-07T02:36:04;6.50;;;5.33;;
9974;SDS011;5028;50.974;4.968;2023-05-07T02:38:34;6.50;;;5.80;;
9974;SDS011;5028;50.974;4.968;2023-05-07T02:41:03;6.17;;;5.57;;
9974;SDS011;5028;50.974;4.968;2023-05-07T02:43:34;8.20;;;5.80;;
9974;SDS011;5028;50.974;4.968;2023-05-07T02:46:03;7.23;;;5.70;;
9974;SDS011;5028;50.974;4.968;2023-05-07T02:48:33;6.20;;;5.10;;
9974;SDS011;5028;50.974;4.968;2023-05-07T02:51:02;6.00;;;5.40;;
9974;SDS011;5028;50.974;4.968;2023-05-07T02:53:33;5.87;;;5.30;;
9974;SDS011;5028;50.974;4.968;2023-05-07T02:56:03;6.43;;;5.67;;
9974;SDS011;5028;50.974;4.968;2023-05-07T02:58:34;8.47;;;5.70;;
9974;SDS011;5028;50.974;4.968;2023-05-07T03:01:02;5.67;;;5.17;;
9974;SDS011;5028;50.974;4.968;2023-05-07T03:03:31;6.57;;;5.50;;
9974;SDS011;5028;50.974;4.968;2023-05-07T03:06:00;7.23;;;5.37;;
9974;SDS011;5028;50.974;4.968;2023-05-07T03:08:29;5.80;;;5.30;;
9974;SDS011;5028;50.974;4.968;2023-05-07T03:10:58;5.97;;;5.37;;
9974;SDS011;5028;50.974;4.968;2023-05-07T03:13:27;5.83;;;5.10;;
9974;SDS011;5028;50.974;4.968;2023-05-07T03:15:57;7.10;;;5.07;;
9974;SDS011;5028;50.974;4.968;2023-05-07T03:18:26;6.13;;;5.50;;
9974;SDS011;5028;50.974;4.968;2023-05-07T03:20:55;5.97;;;5.37;;
9974;SDS011;5028;50.974;4.968;2023-05-07T03:23:23;7.00;;;5.77;;
9974;SDS011;5028;50.974;4.968;2023-05-07T03:25:52;7.00;;;5.80;;
9974;SDS011;5028;50.974;4.968;2023-05-07T03:28:24;5.83;;;5.30;;
9974;SDS011;5028;50.974;4.968;2023-05-07T03:30:52;5.60;;;5.10;;
9974;SDS011;5028;50.974;4.968;2023-05-07T03:33:23;5.87;;;5.33;;
9974;SDS011;5028;50.974;4.968;2023-05-07T03:35:52;5.63;;;5.13;;
9974;SDS011;5028;50.974;4.968;2023-05-07T03:38:23;6.73;;;5.27;;
9974;SDS011;5028;50.974;4.968;2023-05-07T03:40:52;6.20;;;5.47;;
9974;SDS011;5028;50.974;4.968;2023-05-07T03:43:21;6.13;;;5.53;;
9974;SDS011;5028;50.974;4.968;2023-05-07T03:45:51;7.13;;;5.33;;
9974;SDS011;5028;50.974;4.968;2023-05-07T03:48:19;5.70;;;5.20;;
9974;SDS011;5028;50.974;4.968;2023-05-07T03:50:50;5.90;;;5.37;;
9974;SDS011;5028;50.974;4.968;2023-05-07T03:53:19;6.33;;;5.47;;
9974;SDS011;5028;50.974;4.968;2023-05-07T03:55:48;5.90;;;5.40;;
9974;SDS011;5028;50.974;4.968;2023-05-07T03:58:18;6.50;;;5.80;;
9974;SDS011;5028;50.974;4.968;2023-05-07T04:00:46;8.00;;;5.20;;
9974;SDS011;5028;50.974;4.968;2023-05-07T04:03:16;6.03;;;5.53;;
9974;SDS011;5028;50.974;4.968;2023-05-07T04:05:46;9.80;;;5.50;;
9974;SDS011;5028;50.974;4.968;2023-05-07T04:08:16;6.40;;;5.80;;
9974;SDS011;5028;50.974;4.968;2023-05-07T04:10:45;6.70;;;5.93;;
9974;SDS011;5028;50.974;4.968;2023-05-07T04:13:14;6.10;;;5.50;;
9974;SDS011;5028;50.974;4.968;2023-05-07T04:15:43;6.00;;;5.40;;
9974;SDS011;5028;50.974;4.968;2023-05-07T04:18:12;5.97;;;5.33;;
9974;SDS011;5028;50.974;4.968;2023-05-07T04:20:41;6.07;;;5.43;;
9974;SDS011;5028;50.974;4.968;2023-05-07T04:23:10;6.23;;;5.63;;
9974;SDS011;5028;50.974;4.968;2023-05-07T04:25:42;6.63;;;5.90;;
9974;SDS011;5028;50.974;4.968;2023-05-07T04:28:13;6.20;;;5.60;;
9974;SDS011;5028;50.974;4.968;2023-05-07T04:30:43;6.93;;;6.00;;
9974;SDS011;5028;50.974;4.968;2023-05-07T04:33:13;6.90;;;6.20;;
9974;SDS011;5028;50.974;4.968;2023-05-07T04:35:43;6.63;;;6.10;;
9974;SDS011;5028;50.974;4.968;2023-05-07T04:38:12;6.40;;;5.37;;
9974;SDS011;5028;50.974;4.968;2023-05-07T04:40:42;6.57;;;5.97;;
9974;SDS011;5028;50.974;4.968;2023-05-07T04:43:11;6.17;;;5.37;;
9974;SDS011;5028;50.974;4.968;2023-05-07T04:45:41;6.50;;;5.37;;
9974;SDS011;5028;50.974;4.968;2023-05-07T04:48:12;5.80;;;5.30;;
9974;SDS011;5028;50.974;4.968;2023-05-07T04:50:42;6.10;;;5.50;;
9974;SDS011;5028;50.974;4.968;2023-05-07T04:53:11;6.73;;;5.60;;
9974;SDS011;5028;50.974;4.968;2023-05-07T04:55:39;6.60;;;5.57;;
9974;SDS011;5028;50.974;4.968;2023-05-07T04:58:10;5.67;;;5.17;;
9974;SDS011;5028;50.974;4.968;2023-05-07T05:00:40;6.23;;;5.57;;
9974;SDS011;5028;50.974;4.968;2023-05-07T05:03:09;6.07;;;5.50;;
9974;SDS011;5028;50.974;4.968;2023-05-07T05:05:39;6.60;;;5.63;;
9974;SDS011;5028;50.974;4.968;2023-05-07T05:08:07;6.60;;;5.97;;
9974;SDS011;5028;50.974;4.968;2023-05-07T05:10:36;7.50;;;5.80;;
9974;SDS011;5028;50.974;4.968;2023-05-07T05:13:05;6.30;;;5.70;;
9974;SDS011;5028;50.974;4.968;2023-05-07T05:15:36;5.70;;;5.13;;
9974;SDS011;5028;50.974;4.968;2023-05-07T05:18:05;7.80;;;5.60;;
9974;SDS011;5028;50.974;4.968;2023-05-07T05:20:34;6.87;;;5.83;;
9974;SDS011;5028;50.974;4.968;2023-05-07T05:23:02;6.70;;;6.00;;
9974;SDS011;5028;50.974;4.968;2023-05-07T05:25:32;6.83;;;6.13;;
9974;SDS011;5028;50.974;4.968;2023-05-07T05:28:01;6.83;;;5.73;;
9974;SDS011;5028;50.974;4.968;2023-05-07T05:30:30;6.07;;;5.53;;
9974;SDS011;5028;50.974;4.968;2023-05-07T05:33:00;7.27;;;6.07;;
9974;SDS011;5028;50.974;4.968;2023-05-07T05:35:29;6.77;;;6.17;;
9974;SDS011;5028;50.974;4.968;2023-05-07T05:37:58;6.50;;;5.80;;
9974;SDS011;5028;50.974;4.968;2023-05-07T05:40:27;6.47;;;5.97;;
9974;SDS011;5028;50.974;4.968;2023-05-07T05:42:56;6.13;;;5.53;;
9974;SDS011;5028;50.974;4.968;2023-05-07T05:45:25;6.20;;;5.60;;
9974;SDS011;5028;50.974;4.968;2023-05-07T05:47:55;6.67;;;6.07;;
9974;SDS011;5028;50.974;4.968;2023-05-07T05:50:26;6.90;;;5.87;;
9974;SDS011;5028;50.974;4.968;2023-05-07T05:52:55;7.90;;;6.07;;
9974;SDS011;5028;50.974;4.968;2023-05-07T05:55:25;9.17;;;6.67;;
9974;SDS011;5028;50.974;4.968;2023-05-07T05:57:54;6.23;;;5.63;;
9974;SDS011;5028;50.974;4.968;2023-05-07T06:00:23;6.43;;;5.83;;
9974;SDS011;5028;50.974;4.968;2023-05-07T06:02:53;6.73;;;6.00;;
9974;SDS011;5028;50.974;4.968;2023-05-07T06:05:23;6.50;;;5.57;;
9974;SDS011;5028;50.974;4.968;2023-05-07T06:07:54;7.13;;;6.10;;
9974;SDS011;5028;50.974;4.968;2023-05-07T06:10:23;6.43;;;5.83;;
9974;SDS011;5028;50.974;4.968;2023-05-07T06:12:53;6.50;;;5.90;;
9974;SDS011;5028;50.974;4.968;2023-05-07T06:15:22;6.40;;;5.77;;
9974;SDS011;5028;50.974;4.968;2023-05-07T06:17:51;5.90;;;5.30;;
9974;SDS011;5028;50.974;4.968;2023-05-07T06:20:19;6.03;;;5.50;;
9974;SDS011;5028;50.974;4.968;2023-05-07T06:22:51;6.50;;;5.90;;
9974;SDS011;5028;50.974;4.968;2023-05-07T06:25:21;6.53;;;5.60;;
9974;SDS011;5028;50.974;4.968;2023-05-07T06:27:49;6.90;;;5.97;;
9974;SDS011;5028;50.974;4.968;2023-05-07T06:30:19;6.73;;;6.00;;
9974;SDS011;5028;50.974;4.968;2023-05-07T06:32:49;6.93;;;5.93;;
9974;SDS011;5028;50.974;4.968;2023-05-07T06:35:18;6.47;;;5.87;;
9974;SDS011;5028;50.974;4.968;2023-05-07T06:37:47;6.70;;;6.10;;
9974;SDS011;5028;50.974;4.968;2023-05-07T06:40:17;6.63;;;6.03;;
9974;SDS011;5028;50.974;4.968;2023-05-07T06:42:50;6.53;;;5.93;;
9974;SDS011;5028;50.974;4.968;2023-05-07T06:45:19;6.70;;;6.00;;
9974;SDS011;5028;50.974;4.968;2023-05-07T06:47:48;7.00;;;5.90;;
9974;SDS011;5028;50.974;4.968;2023-05-07T06:50:17;7.50;;;6.07;;
9974;SDS011;5028;50.974;4.968;2023-05-07T06:52:46;7.13;;;5.63;;
9974;SDS011;5028;50.974;4.968;2023-05-07T06:55:18;7.00;;;6.30;;
9974;SDS011;5028;50.974;4.968;2023-05-07T06:57:46;7.20;;;6.10;;
9974;SDS011;5028;50.974;4.968;2023-05-07T07:00:19;6.37;;;5.53;;
9974;SDS011;5028;50.974;4.968;2023-05-07T07:02:49;6.63;;;5.93;;
9974;SDS011;5028;50.974;4.968;2023-05-07T07:05:18;5.90;;;5.27;;
9974;SDS011;5028;50.974;4.968;2023-05-07T07:07:47;6.67;;;5.93;;
9974;SDS011;5028;50.974;4.968;2023-05-07T07:10:19;6.43;;;5.40;;
9974;SDS011;5028;50.974;4.968;2023-05-07T07:12:49;6.27;;;5.67;;
9974;SDS011;5028;50.974;4.968;2023-05-07T07:15:20;6.27;;;5.57;;
9974;SDS011;5028;50.974;4.968;2023-05-07T07:17:51;6.20;;;5.60;;
9974;SDS011;5028;50.974;4.968;2023-05-07T07:20:20;6.20;;;5.03;;
9974;SDS011;5028;50.974;4.968;2023-05-07T07:22:49;6.27;;;5.47;;
9974;SDS011;5028;50.974;4.968;2023-05-07T07:25:18;6.63;;;5.40;;
9974;SDS011;5028;50.974;4.968;2023-05-07T07:27:46;6.77;;;5.13;;
9974;SDS011;5028;50.974;4.968;2023-05-07T07:30:15;8.37;;;5.40;;
9974;SDS011;5028;50.974;4.968;2023-05-07T07:32:45;6.03;;;4.50;;
9974;SDS011;5028;50.974;4.968;2023-05-07T07:35:14;6.47;;;5.00;;
9974;SDS011;5028;50.974;4.968;2023-05-07T07:37:44;5.87;;;4.67;;
9974;SDS011;5028;50.974;4.968;2023-05-07T07:40:13;7.33;;;5.33;;
9974;SDS011;5028;50.974;4.968;2023-05-07T07:42:43;7.70;;;5.17;;
9974;SDS011;5028;50.974;4.968;2023-05-07T07:45:13;7.00;;;5.00;;
9974;SDS011;5028;50.974;4.968;2023-05-07T07:47:42;6.90;;;4.87;;
9974;SDS011;5028;50.974;4.968;2023-05-07T07:50:15;7.57;;;4.80;;
9974;SDS011;5028;50.974;4.968;2023-05-07T07:53:05;6.93;;;4.87;;
9974;SDS011;5028;50.974;4.968;2023-05-07T07:55:38;8.00;;;5.03;;
9974;SDS011;5028;50.974;4.968;2023-05-07T07:58:07;8.07;;;5.57;;
9974;SDS011;5028;50.974;4.968;2023-05-07T08:00:38;6.83;;;4.93;;
9974;SDS011;5028;50.974;4.968;2023-05-07T08:03:10;7.43;;;5.07;;
9974;SDS011;5028;50.974;4.968;2023-05-07T08:05:39;8.77;;;5.20;;
9974;SDS011;5028;50.974;4.968;2023-05-07T08:08:09;8.30;;;5.03;;
9974;SDS011;5028;50.974;4.968;2023-05-07T08:10:44;9.03;;;5.33;;
9974;SDS011;5028;50.974;4.968;2023-05-07T08:13:17;7.40;;;4.60;;
9974;SDS011;5028;50.974;4.968;2023-05-07T08:15:49;6.33;;;5.03;;
9974;SDS011;5028;50.974;4.968;2023-05-07T08:18:21;10.03;;;5.10;;
9974;SDS011;5028;50.974;4.968;2023-05-07T08:20:51;8.63;;;5.27;;
9974;SDS011;5028;50.974;4.968;2023-05-07T08:23:20;8.60;;;4.53;;
9974;SDS011;5028;50.974;4.968;2023-05-07T08:25:49;5.73;;;4.80;;
9974;SDS011;5028;50.974;4.968;2023-05-07T08:28:19;7.23;;;4.87;;
9974;SDS011;5028;50.974;4.968;2023-05-07T08:30:48;8.30;;;4.93;;
9974;SDS011;5028;50.974;4.968;2023-05-07T08:33:17;7.50;;;5.10;;
9974;SDS011;5028;50.974;4.968;2023-05-07T08:35:49;7.13;;;4.47;;
9974;SDS011;5028;50.974;4.968;2023-05-07T08:38:18;7.53;;;4.90;;
9974;SDS011;5028;50.974;4.968;2023-05-07T08:40:47;7.00;;;5.10;;
9974;SDS011;5028;50.974;4.968;2023-05-07T08:43:16;8.00;;;4.83;;
9974;SDS011;5028;50.974;4.968;2023-05-07T08:45:46;8.97;;;5.13;;
9974;SDS011;5028;50.974;4.968;2023-05-07T08:48:17;10.53;;;5.27;;
9974;SDS011;5028;50.974;4.968;2023-05-07T08:50:57;9.13;;;5.30;;
9974;SDS011;5028;50.974;4.968;2023-05-07T08:53:28;9.10;;;5.53;;
9974;SDS011;5028;50.974;4.968;2023-05-07T08:55:57;6.73;;;5.37;;
9974;SDS011;5028;50.974;4.968;2023-05-07T08:58:27;9.07;;;5.63;;
9974;SDS011;5028;50.974;4.968;2023-05-07T09:00:57;8.73;;;5.40;;
9974;SDS011;5028;50.974;4.968;2023-05-07T09:03:31;8.60;;;4.97;;
9974;SDS011;5028;50.974;4.968;2023-05-07T09:06:05;8.80;;;5.33;;
9974;SDS011;5028;50.974;4.968;2023-05-07T09:08:36;9.17;;;5.40;;
9974;SDS011;5028;50.974;4.968;2023-05-07T09:11:05;8.27;;;5.33;;
9974;SDS011;5028;50.974;4.968;2023-05-07T09:13:35;7.63;;;5.40;;
9974;SDS011;5028;50.974;4.968;2023-05-07T09:16:10;9.13;;;5.40;;
9974;SDS011;5028;50.974;4.968;2023-05-07T09:18:43;9.20;;;4.97;;
9974;SDS011;5028;50.974;4.968;2023-05-07T09:21:16;8.43;;;4.77;;
9974;SDS011;5028;50.974;4.968;2023-05-07T09:23:45;7.17;;;4.50;;
9974;SDS011;5028;50.974;4.968;2023-05-07T09:26:16;6.83;;;4.53;;
9974;SDS011;5028;50.974;4.968;2023-05-07T09:28:45;7.53;;;4.50;;
9974;SDS011;5028;50.974;4.968;2023-05-07T09:31:14;6.73;;;4.37;;
9974;SDS011;5028;50.974;4.968;2023-05-07T09:33:46;9.17;;;4.90;;
9974;SDS011;5028;50.974;4.968;2023-05-07T09:36:16;8.77;;;4.13;;
9974;SDS011;5028;50.974;4.968;2023-05-07T09:38:45;7.87;;;3.97;;
9974;SDS011;5028;50.974;4.968;2023-05-07T09:41:17;6.57;;;3.70;;
9974;SDS011;5028;50.974;4.968;2023-05-07T09:43:47;7.33;;;3.60;;
9974;SDS011;5028;50.974;4.968;2023-05-07T09:46:23;5.97;;;3.53;;
9974;SDS011;5028;50.974;4.968;2023-05-07T09:48:57;6.50;;;3.17;;
9974;SDS011;5028;50.974;4.968;2023-05-07T09:51:30;5.43;;;3.43;;
9974;SDS011;5028;50.974;4.968;2023-05-07T09:54:01;7.00;;;3.50;;
9974;SDS011;5028;50.974;4.968;2023-05-07T09:56:31;6.00;;;3.30;;
9974;SDS011;5028;50.974;4.968;2023-05-07T09:59:01;4.30;;;2.93;;
9974;SDS011;5028;50.974;4.968;2023-05-07T10:01:33;6.87;;;3.13;;
9974;SDS011;5028;50.974;4.968;2023-05-07T10:04:04;5.70;;;2.73;;
9974;SDS011;5028;50.974;4.968;2023-05-07T10:06:36;4.23;;;2.60;;
9974;SDS011;5028;50.974;4.968;2023-05-07T10:09:05;8.53;;;3.13;;
9974;SDS011;5028;50.974;4.968;2023-05-07T10:11:34;6.20;;;3.20;;
9974;SDS011;5028;50.974;4.968;2023-05-07T10:14:03;6.00;;;3.47;;
9974;SDS011;5028;50.974;4.968;2023-05-07T10:16:34;7.47;;;3.37;;
9974;SDS011;5028;50.974;4.968;2023-05-07T10:19:03;8.20;;;3.30;;
9974;SDS011;5028;50.974;4.968;2023-05-07T10:21:32;4.90;;;2.90;;
9974;SDS011;5028;50.974;4.968;2023-05-07T10:24:06;5.37;;;3.00;;
9974;SDS011;5028;50.974;4.968;2023-05-07T10:26:41;4.57;;;2.77;;
9974;SDS011;5028;50.974;4.968;2023-05-07T10:29:14;6.77;;;3.03;;
9974;SDS011;5028;50.974;4.968;2023-05-07T10:31:50;4.53;;;2.70;;
9974;SDS011;5028;50.974;4.968;2023-05-07T10:34:28;6.17;;;3.10;;
9974;SDS011;5028;50.974;4.968;2023-05-07T10:37:05;6.10;;;3.00;;
9974;SDS011;5028;50.974;4.968;2023-05-07T10:39:34;7.73;;;3.53;;
9974;SDS011;5028;50.974;4.968;2023-05-07T10:42:09;7.57;;;3.83;;
9974;SDS011;5028;50.974;4.968;2023-05-07T10:44:38;6.37;;;4.10;;
9974;SDS011;5028;50.974;4.968;2023-05-07T10:47:27;7.47;;;3.67;;
9974;SDS011;5028;50.974;4.968;2023-05-07T11:02:01;5.13;;;2.83;;
9974;SDS011;5028;50.974;4.968;2023-05-07T11:04:33;6.00;;;2.43;;
9974;SDS011;5028;50.974;4.968;2023-05-07T11:09:58;4.07;;;2.40;;
9974;SDS011;5028;50.974;4.968;2023-05-07T11:12:48;4.20;;;2.40;;
9974;SDS011;5028;50.974;4.968;2023-05-07T11:18:11;6.43;;;2.80;;
9974;SDS011;5028;50.974;4.968;2023-05-07T11:20:47;5.17;;;3.00;;
9974;SDS011;5028;50.974;4.968;2023-05-07T11:26:41;5.83;;;2.70;;
9974;SDS011;5028;50.974;4.968;2023-05-07T11:29:13;5.00;;;2.90;;
9974;SDS011;5028;50.974;4.968;2023-05-07T11:31:50;5.50;;;2.70;;
9974;SDS011;5028;50.974;4.968;2023-05-07T11:34:23;5.43;;;3.20;;
9974;SDS011;5028;50.974;4.968;2023-05-07T11:36:52;6.83;;;3.17;;
9974;SDS011;5028;50.974;4.968;2023-05-07T11:39:25;5.33;;;3.30;;
9974;SDS011;5028;50.974;4.968;2023-05-07T11:41:54;8.00;;;3.53;;
9974;SDS011;5028;50.974;4.968;2023-05-07T11:44:24;5.07;;;3.20;;
9974;SDS011;5028;50.974;4.968;2023-05-07T11:46:53;4.90;;;2.97;;
9974;SDS011;5028;50.974;4.968;2023-05-07T11:49:21;5.67;;;3.50;;
9974;SDS011;5028;50.974;4.968;2023-05-07T11:51:54;4.83;;;3.20;;
9974;SDS011;5028;50.974;4.968;2023-05-07T11:54:22;7.50;;;3.10;;
9974;SDS011;5028;50.974;4.968;2023-05-07T11:56:51;4.33;;;3.10;;
9974;SDS011;5028;50.974;4.968;2023-05-07T11:59:20;4.33;;;2.30;;
9974;SDS011;5028;50.974;4.968;2023-05-07T12:01:49;5.30;;;2.97;;
9974;SDS011;5028;50.974;4.968;2023-05-07T12:04:21;4.77;;;3.20;;
9974;SDS011;5028;50.974;4.968;2023-05-07T12:06:53;5.80;;;3.30;;
9974;SDS011;5028;50.974;4.968;2023-05-07T12:09:22;4.60;;;2.90;;
9974;SDS011;5028;50.974;4.968;2023-05-07T12:11:51;6.50;;;3.70;;
9974;SDS011;5028;50.974;4.968;2023-05-07T12:14:20;5.27;;;2.60;;
9974;SDS011;5028;50.974;4.968;2023-05-07T12:16:50;5.83;;;2.40;;
9974;SDS011;5028;50.974;4.968;2023-05-07T12:19:19;4.97;;;2.53;;
9974;SDS011;5028;50.974;4.968;2023-05-07T12:21:48;4.57;;;2.90;;
9974;SDS011;5028;50.974;4.968;2023-05-07T12:24:17;4.83;;;2.80;;
9974;SDS011;5028;50.974;4.968;2023-05-07T12:26:47;5.00;;;2.40;;
9974;SDS011;5028;50.974;4.968;2023-05-07T12:29:16;5.07;;;2.90;;
9974;SDS011;5028;50.974;4.968;2023-05-07T12:31:45;5.13;;;3.00;;
9974;SDS011;5028;50.974;4.968;2023-05-07T12:34:15;6.50;;;2.80;;
9974;SDS011;5028;50.974;4.968;2023-05-07T12:36:43;4.63;;;2.70;;
9974;SDS011;5028;50.974;4.968;2023-05-07T12:39:12;6.03;;;2.90;;
9974;SDS011;5028;50.974;4.968;2023-05-07T12:41:53;6.90;;;3.10;;
9974;SDS011;5028;50.974;4.968;2023-05-07T12:44:22;6.10;;;2.97;;
9974;SDS011;5028;50.974;4.968;2023-05-07T12:46:51;8.30;;;2.97;;
9974;SDS011;5028;50.974;4.968;2023-05-07T12:49:21;5.40;;;2.80;;
9974;SDS011;5028;50.974;4.968;2023-05-07T12:51:51;4.60;;;2.63;;
9974;SDS011;5028;50.974;4.968;2023-05-07T12:54:29;5.00;;;2.47;;
9974;SDS011;5028;50.974;4.968;2023-05-07T12:57:00;5.57;;;2.53;;
9974;SDS011;5028;50.974;4.968;2023-05-07T12:59:33;4.70;;;2.53;;
9974;SDS011;5028;50.974;4.968;2023-05-07T13:02:03;5.10;;;2.80;;
9974;SDS011;5028;50.974;4.968;2023-05-07T13:04:33;6.13;;;2.80;;
9974;SDS011;5028;50.974;4.968;2023-05-07T13:07:02;5.47;;;2.70;;
9974;SDS011;5028;50.974;4.968;2023-05-07T13:09:31;5.87;;;3.03;;
9974;SDS011;5028;50.974;4.968;2023-05-07T13:11:59;6.30;;;2.90;;
9974;SDS011;5028;50.974;4.968;2023-05-07T13:14:28;4.83;;;2.60;;
9974;SDS011;5028;50.974;4.968;2023-05-07T13:16:57;5.23;;;2.70;;
9974;SDS011;5028;50.974;4.968;2023-05-07T13:19:25;4.77;;;2.83;;
9974;SDS011;5028;50.974;4.968;2023-05-07T13:21:58;5.47;;;2.80;;
9974;SDS011;5028;50.974;4.968;2023-05-07T13:24:26;5.70;;;3.10;;
9974;SDS011;5028;50.974;4.968;2023-05-07T13:26:54;5.53;;;2.80;;
9974;SDS011;5028;50.974;4.968;2023-05-07T13:29:23;5.67;;;3.17;;
9974;SDS011;5028;50.974;4.968;2023-05-07T13:31:56;5.00;;;2.40;;
9974;SDS011;5028;50.974;4.968;2023-05-07T13:34:24;4.33;;;2.63;;
9974;SDS011;5028;50.974;4.968;2023-05-07T13:36:53;5.57;;;2.33;;
9974;SDS011;5028;50.974;4.968;2023-05-07T13:39:22;5.93;;;2.53;;
9974;SDS011;5028;50.974;4.968;2023-05-07T13:41:51;5.30;;;2.63;;
9974;SDS011;5028;50.974;4.968;2023-05-07T13:44:19;5.07;;;3.13;;
9974;SDS011;5028;50.974;4.968;2023-05-07T13:46:48;5.73;;;2.90;;
9974;SDS011;5028;50.974;4.968;2023-05-07T13:49:17;5.40;;;2.77;;
9974;SDS011;5028;50.974;4.968;2023-05-07T13:51:45;4.23;;;2.30;;
9974;SDS011;5028;50.974;4.968;2023-05-07T13:54:14;5.23;;;2.70;;
9974;SDS011;5028;50.974;4.968;2023-05-07T13:56:44;3.90;;;2.40;;
9974;SDS011;5028;50.974;4.968;2023-05-07T13:59:12;5.30;;;2.53;;
9974;SDS011;5028;50.974;4.968;2023-05-07T14:01:43;4.67;;;2.53;;
9974;SDS011;5028;50.974;4.968;2023-05-07T14:04:12;5.53;;;2.60;;
9974;SDS011;5028;50.974;4.968;2023-05-07T14:06:44;5.77;;;2.67;;
9974;SDS011;5028;50.974;4.968;2023-05-07T14:09:13;4.80;;;2.57;;
9974;SDS011;5028;50.974;4.968;2023-05-07T14:11:41;6.20;;;3.00;;
9974;SDS011;5028;50.974;4.968;2023-05-07T14:14:13;4.70;;;2.50;;
9974;SDS011;5028;50.974;4.968;2023-05-07T14:16:42;5.47;;;2.97;;
9974;SDS011;5028;50.974;4.968;2023-05-07T14:19:15;4.67;;;2.30;;
9974;SDS011;5028;50.974;4.968;2023-05-07T14:21:44;5.10;;;1.97;;
9974;SDS011;5028;50.974;4.968;2023-05-07T14:24:13;4.33;;;2.23;;
9974;SDS011;5028;50.974;4.968;2023-05-07T14:27:01;4.87;;;2.67;;
9974;SDS011;5028;50.974;4.968;2023-05-07T14:29:29;3.13;;;1.80;;
9974;SDS011;5028;50.974;4.968;2023-05-07T14:31:58;4.57;;;2.13;;
9974;SDS011;5028;50.974;4.968;2023-05-07T14:34:26;3.70;;;1.90;;
9974;SDS011;5028;50.974;4.968;2023-05-07T14:36:55;5.17;;;2.37;;
9974;SDS011;5028;50.974;4.968;2023-05-07T14:39:24;3.87;;;2.07;;
9974;SDS011;5028;50.974;4.968;2023-05-07T14:41:52;4.27;;;2.27;;
9974;SDS011;5028;50.974;4.968;2023-05-07T14:44:23;2.87;;;1.70;;
9974;SDS011;5028;50.974;4.968;2023-05-07T14:46:52;3.27;;;2.47;;
9974;SDS011;5028;50.974;4.968;2023-05-07T14:49:20;4.50;;;2.40;;
9974;SDS011;5028;50.974;4.968;2023-05-07T14:51:49;6.50;;;2.40;;
9974;SDS011;5028;50.974;4.968;2023-05-07T14:54:18;5.07;;;2.70;;
9974;SDS011;5028;50.974;4.968;2023-05-07T14:56:46;5.60;;;2.33;;
9974;SDS011;5028;50.974;4.968;2023-05-07T14:59:16;4.23;;;2.17;;
9974;SDS011;5028;50.974;4.968;2023-05-07T15:01:48;4.80;;;2.10;;
9974;SDS011;5028;50.974;4.968;2023-05-07T15:04:17;3.97;;;2.13;;
9974;SDS011;5028;50.974;4.968;2023-05-07T15:06:46;4.37;;;2.13;;
9974;SDS011;5028;50.974;4.968;2023-05-07T15:09:14;4.17;;;1.87;;
9974;SDS011;5028;50.974;4.968;2023-05-07T15:11:42;4.43;;;1.70;;
9974;SDS011;5028;50.974;4.968;2023-05-07T15:14:11;2.73;;;1.73;;
9974;SDS011;5028;50.974;4.968;2023-05-07T15:16:39;3.23;;;2.07;;
9974;SDS011;5028;50.974;4.968;2023-05-07T15:19:09;4.03;;;2.00;;
9974;SDS011;5028;50.974;4.968;2023-05-07T15:21:41;4.07;;;2.20;;
9974;SDS011;5028;50.974;4.968;2023-05-07T15:24:11;5.17;;;2.07;;
9974;SDS011;5028;50.974;4.968;2023-05-07T15:26:40;3.67;;;1.80;;
9974;SDS011;5028;50.974;4.968;2023-05-07T15:29:09;3.17;;;1.90;;
9974;SDS011;5028;50.974;4.968;2023-05-07T15:31:37;3.77;;;2.07;;
9974;SDS011;5028;50.974;4.968;2023-05-07T15:34:06;2.90;;;1.70;;
9974;SDS011;5028;50.974;4.968;2023-05-07T15:36:36;5.17;;;2.07;;
9974;SDS011;5028;50.974;4.968;2023-05-07T15:39:04;3.83;;;1.90;;
9974;SDS011;5028;50.974;4.968;2023-05-07T15:41:32;4.00;;;2.00;;
9974;SDS011;5028;50.974;4.968;2023-05-07T15:44:03;3.07;;;1.70;;
9974;SDS011;5028;50.974;4.968;2023-05-07T15:46:32;4.20;;;1.87;;
9974;SDS011;5028;50.974;4.968;2023-05-07T15:49:01;3.30;;;1.93;;
9974;SDS011;5028;50.974;4.968;2023-05-07T15:51:30;3.33;;;2.00;;
9974;SDS011;5028;50.974;4.968;2023-05-07T15:54:03;3.57;;;1.80;;